Time;durP1;ratioP1;P1;durP2;ratioP2;P2;SDS_P1;SDS_P2;PMS_P1;PMS_P2;Temp;Humidity;BMP_temperature;BMP_pressure;BME280_temperature;BME280_humidity;BME280_pressure;Samples;Min_cycle;Max_cycle;Signal;HPM_P1;HPM_P2
2023/01/03 00:01:32;;;;;;;;;;;;;;;3.65;100.00;102470.44;5052335;28;20062;-81
2023/01/03 00:03:58;;;;;;;;;;;;;;;3.64;100.00;102467.00;5053560;28;20317;-81
2023/01/03 00:06:29;;;;;;;;;;;;;;;3.58;100.00;102472.47;5050550;28;20380;-80
2023/01/03 00:08:55;;;;;;;;;;;;;;;3.52;100.00;102469.28;5051011;28;19916;-81
2023/01/03 00:12:22;;;;;;;;;;;;;;;3.43;100.00;102478.34;5060201;28;19924;-80
2023/01/03 00:14:07;;;;;;;;;;;;;;;3.38;100.00;102480.28;5053242;28;20007;-79
2023/01/03 00:16:32;;;;;;;;;;;;;;;3.34;100.00;102483.94;5050659;28;19970;-80
2023/01/03 00:18:58;;;;;;;;;;;;;;;3.27;100.00;102494.63;5052354;28;19924;-83
2023/01/03 00:21:23;;;;;;;;;;;;;;;3.28;100.00;102491.09;5035392;28;19925;-81
2023/01/03 00:23:48;;;;;;;;;;;;;;;3.30;100.00;102485.81;5052225;28;20357;-82
2023/01/03 00:26:15;;;;;;;;;;;;;;;3.29;100.00;102490.19;5051182;28;21337;-79
2023/01/03 00:28:41;;;;;;;;;;;;;;;3.28;100.00;102487.63;5052227;28;19920;-82
2023/01/03 00:31:07;;;;;;;;;;;;;;;3.25;100.00;102486.00;5053373;28;19916;-82
2023/01/03 00:33:33;;;;;;;;;;;;;;;3.22;100.00;102488.75;5052126;28;19924;-80
2023/01/03 00:36:02;;;;;;;;;;;;;;;3.21;100.00;102484.44;5036343;28;20133;-79
2023/01/03 00:38:28;;;;;;;;;;;;;;;3.16;100.00;102489.00;5059235;28;20376;-79
2023/01/03 00:40:53;;;;;;;;;;;;;;;3.19;100.00;102491.47;5053245;28;19916;-78
2023/01/03 00:43:30;;;;;;;;;;;;;;;3.19;100.00;102494.06;5053369;28;19935;-78
2023/01/03 00:45:55;;;;;;;;;;;;;;;3.15;100.00;102497.72;5050568;28;19932;-79
2023/01/03 00:48:21;;;;;;;;;;;;;;;3.10;100.00;102491.84;5052307;28;19917;-79
2023/01/03 00:50:46;;;;;;;;;;;;;;;3.09;100.00;102500.56;5053929;28;20059;-79
2023/01/03 00:53:11;;;;;;;;;;;;;;;3.05;100.00;102486.81;5053609;28;19919;-79
2023/01/03 00:55:37;;;;;;;;;;;;;;;2.99;100.00;102489.66;5037498;28;19917;-79
2023/01/03 00:58:02;;;;;;;;;;;;;;;3.00;100.00;102491.34;5052452;28;20019;-79
2023/01/03 01:00:27;;;;;;;;;;;;;;;3.05;100.00;102488.59;5052252;28;19912;-79
2023/01/03 01:02:53;;;;;;;;;;;;;;;3.05;100.00;102486.81;5051475;28;19924;-78
2023/01/03 01:05:18;;;;;;;;;;;;;;;3.11;100.00;102490.06;5052999;28;20572;-79
2023/01/03 01:07:43;;;;;;;;;;;;;;;3.18;100.00;102497.59;5050446;28;19921;-78
2023/01/03 01:10:09;;;;;;;;;;;;;;;3.24;100.00;102494.72;5051372;28;19920;-78
2023/01/03 01:12:34;;;;;;;;;;;;;;;3.28;100.00;102493.69;5052478;28;19947;-78
2023/01/03 01:14:59;;;;;;;;;;;;;;;3.29;100.00;102490.19;5051974;28;19917;-78
2023/01/03 01:17:27;;;;;;;;;;;;;;;3.38;100.00;102490.75;5052066;28;19964;-78
2023/01/03 01:19:52;;;;;;;;;;;;;;;3.39;100.00;102490.66;5051734;28;19992;-79
2023/01/03 01:22:17;;;;;;;;;;;;;;;3.44;100.00;102487.84;5051760;28;20615;-79
2023/01/03 01:24:43;;;;;;;;;;;;;;;3.50;100.00;102487.59;5053770;28;19925;-78
2023/01/03 01:27:08;;;;;;;;;;;;;;;3.52;100.00;102488.38;5052094;28;19924;-79
2023/01/03 01:29:34;;;;;;;;;;;;;;;3.56;100.00;102487.34;5051277;28;19928;-79
2023/01/03 01:32:00;;;;;;;;;;;;;;;3.59;100.00;102486.38;5051532;28;19925;-79
2023/01/03 01:34:26;;;;;;;;;;;;;;;3.60;100.00;102488.91;5035375;28;20035;-81
2023/01/03 01:36:51;;;;;;;;;;;;;;;3.63;100.00;102501.84;5053081;28;19916;-78
2023/01/03 01:39:18;;;;;;;;;;;;;;;3.66;100.00;102496.50;5052599;28;20011;-78
2023/01/03 01:44:57;;;;;;;;;;;;;;;3.70;100.00;102505.91;5055610;28;19942;-78
2023/01/03 01:47:28;;;;;;;;;;;;;;;3.70;100.00;102505.91;5041589;28;20028;-78
2023/01/03 01:50:14;;;;;;;;;;;;;;;3.66;100.00;102504.34;5056463;28;20378;-78
2023/01/03 01:52:40;;;;;;;;;;;;;;;3.67;100.00;102500.78;5055297;28;20338;-78
2023/01/03 01:55:11;;;;;;;;;;;;;;;3.70;100.00;102492.84;5056880;28;19935;-79
2023/01/03 01:57:37;;;;;;;;;;;;;;;3.56;100.00;102497.78;5056715;28;19920;-79
2023/01/03 02:00:04;;;;;;;;;;;;;;;3.49;100.00;102496.34;5055158;28;20269;-78
2023/01/03 02:02:29;;;;;;;;;;;;;;;3.49;100.00;102510.25;5038020;28;19928;-78
2023/01/03 02:04:54;;;;;;;;;;;;;;;3.53;100.00;102518.81;5054729;28;19998;-80
2023/01/03 02:07:20;;;;;;;;;;;;;;;3.53;100.00;102510.13;5056140;28;19917;-78
2023/01/03 02:09:46;;;;;;;;;;;;;;;3.57;100.00;102515.16;5054515;28;19923;-78
2023/01/03 02:15:33;;;;;;;;;;;;;;;3.67;100.00;102520.84;5054363;28;19982;-78
2023/01/03 02:18:06;;;;;;;;;;;;;;;3.68;100.00;102518.19;5055635;28;19912;-78
2023/01/03 02:20:47;;;;;;;;;;;;;;;3.74;100.00;102516.22;5055610;28;19916;-78
2023/01/03 02:23:31;;;;;;;;;;;;;;;3.75;100.00;102528.38;5056391;28;19928;-78
2023/01/03 02:26:14;;;;;;;;;;;;;;;3.77;100.00;102516.94;5055930;28;19959;-78
2023/01/03 02:28:39;;;;;;;;;;;;;;;3.80;100.00;102521.19;5061606;28;20010;-78
2023/01/03 02:31:27;;;;;;;;;;;;;;;3.88;100.00;102524.31;5055074;28;20031;-79
2023/01/03 02:34:11;;;;;;;;;;;;;;;3.88;100.00;102525.16;5055545;28;19955;-79
2023/01/03 02:36:39;;;;;;;;;;;;;;;3.97;100.00;102526.53;5054869;28;19924;-79
2023/01/03 02:39:14;;;;;;;;;;;;;;;3.99;100.00;102527.31;5055881;28;19963;-78
2023/01/03 02:41:50;;;;;;;;;;;;;;;3.99;100.00;102527.31;5055638;28;20322;-78
2023/01/03 02:44:30;;;;;;;;;;;;;;;3.99;100.00;102527.31;5055173;28;19994;-78
2023/01/03 02:46:59;;;;;;;;;;;;;;;4.04;100.00;102524.50;5055701;28;20316;-79
2023/01/03 02:49:33;;;;;;;;;;;;;;;4.01;100.00;102529.88;5056219;28;19913;-79
2023/01/03 02:52:04;;;;;;;;;;;;;;;3.92;100.00;102521.50;5052277;28;19916;-79
2023/01/03 02:54:34;;;;;;;;;;;;;;;3.82;100.00;102511.53;5061968;28;19916;-79
2023/01/03 02:57:03;;;;;;;;;;;;;;;3.72;100.00;102524.09;5061468;28;19931;-79
2023/01/03 02:59:35;;;;;;;;;;;;;;;3.66;100.00;102525.22;5062103;28;20308;-79
2023/01/03 03:02:03;;;;;;;;;;;;;;;3.58;100.00;102526.47;5053462;28;19971;-79
2023/01/03 03:04:29;;;;;;;;;;;;;;;3.46;100.00;102533.00;5053461;28;19994;-78
2023/01/03 03:07:21;;;;;;;;;;;;;;;3.34;100.00;102544.81;5054652;28;20359;-78
2023/01/03 03:15:18;;;;;;;;;;;;;;;3.10;100.00;102551.84;5055622;28;20304;-78
2023/01/03 03:17:44;;;;;;;;;;;;;;;3.04;100.00;102562.50;5052878;28;19943;-79
2023/01/03 03:25:46;;;;;;;;;;;;;;;2.80;100.00;102564.28;5023041;28;20411;-79
2023/01/03 03:28:34;;;;;;;;;;;;;;;2.70;100.00;102569.00;5053237;28;19912;-78
2023/01/03 03:31:21;;;;;;;;;;;;;;;2.59;100.00;102569.41;5054312;28;19912;-79
2023/01/03 03:33:49;;;;;;;;;;;;;;;2.57;100.00;102575.56;5053015;28;19999;-79
2023/01/03 03:36:21;;;;;;;;;;;;;;;2.50;100.00;102576.69;5054851;28;19912;-78
2023/01/03 03:38:46;;;;;;;;;;;;;;;2.43;100.00;102584.72;5054372;28;19923;-78
2023/01/03 03:47:23;;;;;;;;;;;;;;;2.24;100.00;102596.69;5051825;28;20053;-79
2023/01/03 03:49:50;;;;;;;;;;;;;;;2.17;100.00;102605.63;5051595;28;20011;-79
2023/01/03 03:52:18;;;;;;;;;;;;;;;2.13;100.00;102614.44;5053222;28;20656;-78
2023/01/03 03:54:51;;;;;;;;;;;;;;;2.08;100.00;102613.78;5060989;28;19920;-79
2023/01/03 03:57:31;;;;;;;;;;;;;;;1.99;100.00;102618.38;5060170;28;20015;-79
2023/01/03 04:00:15;;;;;;;;;;;;;;;1.93;100.00;102623.78;5059858;28;19921;-79
2023/01/03 04:02:41;;;;;;;;;;;;;;;1.88;100.00;102625.69;5052866;28;19916;-79
2023/01/03 04:05:08;;;;;;;;;;;;;;;1.83;100.00;102638.03;5060851;28;19917;-78
2023/01/03 04:07:34;;;;;;;;;;;;;;;1.77;100.00;102640.81;5052789;28;19916;-79
2023/01/03 04:09:59;;;;;;;;;;;;;;;1.72;100.00;102642.69;5053986;28;19913;-79
2023/01/03 04:12:24;;;;;;;;;;;;;;;1.66;100.00;102648.97;5052436;28;20361;-79
2023/01/03 04:14:49;;;;;;;;;;;;;;;1.63;100.00;102656.84;5052190;28;19923;-78
2023/01/03 04:17:15;;;;;;;;;;;;;;;1.58;100.00;102654.38;5053671;28;20618;-79
2023/01/03 04:19:40;;;;;;;;;;;;;;;1.53;100.00;102661.50;5054095;28;19921;-79
2023/01/03 04:22:05;;;;;;;;;;;;;;;1.51;100.00;102678.06;5052773;28;20790;-79
2023/01/03 04:24:30;;;;;;;;;;;;;;;1.52;100.00;102685.81;5051764;28;19946;-79
2023/01/03 04:26:56;;;;;;;;;;;;;;;1.49;100.00;102685.91;5035959;28;19924;-80
2023/01/03 04:29:21;;;;;;;;;;;;;;;1.48;100.00;102693.75;5053036;28;19913;-79
2023/01/03 04:31:46;;;;;;;;;;;;;;;1.47;100.00;102692.91;5053721;28;19921;-79
2023/01/03 04:34:11;;;;;;;;;;;;;;;1.46;100.00;102692.94;5051714;28;20338;-79
2023/01/03 04:36:37;;;;;;;;;;;;;;;1.42;100.00;102695.66;5053827;28;19966;-78
2023/01/03 04:39:02;;;;;;;;;;;;;;;1.36;100.00;102695.81;5052321;28;19960;-78
2023/01/03 04:41:27;;;;;;;;;;;;;;;1.33;100.00;102697.66;5042742;28;19917;-79
2023/01/03 04:44:01;;;;;;;;;;;;;;;1.32;100.00;102695.97;5053664;28;19924;-79
2023/01/03 04:46:30;;;;;;;;;;;;;;;1.26;100.00;102688.31;5037436;28;20551;-79
2023/01/03 04:48:55;;;;;;;;;;;;;;;1.23;100.00;102694.47;5053316;28;19974;-79
2023/01/03 04:51:20;;;;;;;;;;;;;;;1.18;100.00;102702.41;5052108;28;20025;-79
2023/01/03 04:53:46;;;;;;;;;;;;;;;1.21;100.00;102711.88;5052244;28;20046;-79
2023/01/03 04:56:11;;;;;;;;;;;;;;;1.25;100.00;102712.66;5052969;28;19931;-79
2023/01/03 04:58:36;;;;;;;;;;;;;;;1.24;100.00;102716.97;5035565;28;19967;-79
2023/01/03 05:01:03;;;;;;;;;;;;;;;1.26;100.00;102724.75;5034809;28;20327;-78
2023/01/03 05:03:28;;;;;;;;;;;;;;;1.28;100.00;102722.94;5052385;28;20007;-79
2023/01/03 05:05:58;;;;;;;;;;;;;;;1.32;100.00;102722.81;5051954;28;20396;-78
2023/01/03 05:08:23;;;;;;;;;;;;;;;1.32;100.00;102724.56;5053626;28;19932;-79
2023/01/03 05:10:50;;;;;;;;;;;;;;;1.34;100.00;102728.00;5053690;28;19921;-79
2023/01/03 05:13:15;;;;;;;;;;;;;;;1.35;100.00;102734.88;5051578;28;19920;-79
2023/01/03 05:15:40;;;;;;;;;;;;;;;1.40;100.00;102738.22;5050382;28;19944;-79
2023/01/03 05:18:05;;;;;;;;;;;;;;;1.47;100.00;102744.09;5035161;28;19993;-79
2023/01/03 05:26:01;;;;;;;;;;;;;;;1.67;100.00;102748.72;5053117;28;20403;-79
2023/01/03 05:28:26;;;;;;;;;;;;;;;1.73;100.00;102751.13;5052354;28;20015;-79
2023/01/03 05:30:52;;;;;;;;;;;;;;;1.70;100.00;102761.63;5051919;28;20492;-78
2023/01/03 05:33:17;;;;;;;;;;;;;;;1.73;100.00;102751.97;5035799;28;20361;-78
2023/01/03 05:35:46;;;;;;;;;;;;;;;1.76;100.00;102756.25;5053244;28;19927;-78
2023/01/03 05:38:12;;;;;;;;;;;;;;;1.72;100.00;102755.50;5051439;28;19920;-78
2023/01/03 05:40:37;;;;;;;;;;;;;;;1.75;100.00;102767.56;5053373;28;19920;-78
2023/01/03 05:43:02;;;;;;;;;;;;;;;1.79;100.00;102772.63;5058576;28;20037;-78
2023/01/03 05:45:27;;;;;;;;;;;;;;;1.87;100.00;102777.59;5052269;28;19920;-78
2023/01/03 05:47:55;;;;;;;;;;;;;;;1.93;100.00;102771.34;5052064;28;19917;-79
2023/01/03 05:50:20;;;;;;;;;;;;;;;1.95;100.00;102770.41;5052563;28;19924;-79
2023/01/03 05:52:47;;;;;;;;;;;;;;;1.98;100.00;102780.75;5051787;28;19921;-78
2023/01/03 05:55:12;;;;;;;;;;;;;;;1.99;100.00;102790.25;5052478;28;20023;-79
2023/01/03 05:57:38;;;;;;;;;;;;;;;1.99;100.00;102794.63;5050534;28;20635;-79
2023/01/03 06:00:03;;;;;;;;;;;;;;;2.02;100.00;102789.31;5052061;28;20766;-79
2023/01/03 06:02:28;;;;;;;;;;;;;;;2.03;100.00;102788.41;5051848;28;19925;-78
2023/01/03 06:04:54;;;;;;;;;;;;;;;2.08;100.00;102790.88;5051666;28;19921;-79
2023/01/03 06:07:19;;;;;;;;;;;;;;;2.06;100.00;102791.75;5052102;28;20686;-79
2023/01/03 06:09:44;;;;;;;;;;;;;;;2.08;100.00;102790.88;5052947;28;19921;-78
2023/01/03 06:12:09;;;;;;;;;;;;;;;2.12;100.00;102789.88;5051742;28;19994;-79
2023/01/03 06:14:35;;;;;;;;;;;;;;;2.15;100.00;102790.63;5049533;28;20006;-79
2023/01/03 06:19:44;;;;;;;;;;;;;;;2.23;100.00;102793.00;5052593;28;19994;-79
2023/01/03 06:22:09;;;;;;;;;;;;;;;2.24;100.00;102803.38;5049935;28;20395;-78
2023/01/03 06:24:34;;;;;;;;;;;;;;;2.24;100.00;102803.38;5051828;28;19924;-78
2023/01/03 06:27:00;;;;;;;;;;;;;;;2.30;100.00;102812.75;5052573;28;20003;-78
2023/01/03 06:29:25;;;;;;;;;;;;;;;2.26;100.00;102805.94;5054035;28;19921;-78
2023/01/03 06:31:50;;;;;;;;;;;;;;;2.26;100.00;102803.31;5055729;28;19928;-78
2023/01/03 06:34:15;;;;;;;;;;;;;;;2.26;100.00;102805.94;5037736;28;20585;-79
2023/01/03 06:36:41;;;;;;;;;;;;;;;2.27;100.00;102802.44;5055961;28;20723;-78
2023/01/03 06:39:07;;;;;;;;;;;;;;;2.26;100.00;102812.00;5054473;28;19921;-78
2023/01/03 06:41:32;;;;;;;;;;;;;;;2.27;100.00;102820.66;5055458;28;20012;-79
2023/01/03 06:43:58;;;;;;;;;;;;;;;2.28;100.00;102822.38;5053108;28;20689;-78
2023/01/03 06:54:41;;;;;;;;;;;;;;;2.31;100.00;102834.44;5054911;28;19928;-78
2023/01/03 06:57:06;;;;;;;;;;;;;;;2.28;100.00;102830.19;5054016;28;19944;-78
2023/01/03 06:59:31;;;;;;;;;;;;;;;2.29;100.00;102828.41;5054237;28;19916;-78
2023/01/03 07:01:56;;;;;;;;;;;;;;;2.28;100.00;102829.34;5055072;28;19927;-78
2023/01/03 07:04:22;;;;;;;;;;;;;;;2.23;100.00;102837.28;5053998;28;19951;-78
2023/01/03 07:06:48;;;;;;;;;;;;;;;2.20;100.00;102837.38;5054189;28;19920;-78
2023/01/03 07:09:13;;;;;;;;;;;;;;;2.18;100.00;102840.03;5055135;28;19935;-79
2023/01/03 07:11:39;;;;;;;;;;;;;;;2.19;100.00;102839.13;5054782;28;20412;-79
2023/01/03 07:14:04;;;;;;;;;;;;;;;2.18;100.00;102842.66;5053855;28;19925;-78
2023/01/03 07:16:34;;;;;;;;;;;;;;;2.18;100.00;102845.25;5055268;28;19972;-78
2023/01/03 07:18:59;;;;;;;;;;;;;;;2.04;100.00;102837.84;5055388;28;20441;-78
2023/01/03 07:21:26;;;;;;;;;;;;;;;2.13;100.00;102854.09;5055075;28;19924;-78
2023/01/03 07:23:52;;;;;;;;;;;;;;;2.14;100.00;102855.81;5054194;28;20384;-78
2023/01/03 07:26:17;;;;;;;;;;;;;;;2.12;100.00;102857.63;5054802;28;19931;-78
2023/01/03 07:28:43;;;;;;;;;;;;;;;2.09;100.00;102852.47;5055029;28;19921;-78
2023/01/03 07:31:08;;;;;;;;;;;;;;;2.08;100.00;102853.38;5053283;28;20602;-78
2023/01/03 07:33:33;;;;;;;;;;;;;;;1.99;100.00;102857.97;5054173;28;20311;-78
2023/01/03 07:36:03;;;;;;;;;;;;;;;1.95;100.00;102856.34;5055063;28;19924;-78
2023/01/03 07:38:28;;;;;;;;;;;;;;;1.94;100.00;102854.66;5059055;28;19971;-78
2023/01/03 07:40:57;;;;;;;;;;;;;;;1.90;100.00;102855.63;5078846;28;19916;-77
2023/01/03 07:43:38;;;;;;;;;;;;;;;1.85;100.00;102857.50;5055457;28;19920;-78
2023/01/03 07:46:11;;;;;;;;;;;;;;;1.72;100.00;102851.81;5054020;28;19925;-81
2023/01/03 07:48:37;;;;;;;;;;;;;;;1.69;100.00;102853.66;5052441;28;20300;-83
2023/01/03 07:51:03;;;;;;;;;;;;;;;1.63;100.00;102860.75;5037369;28;20190;-82
2023/01/03 07:53:28;;;;;;;;;;;;;;;1.60;100.00;102860.81;5060996;28;19974;-83
2023/01/03 07:55:54;;;;;;;;;;;;;;;1.63;100.00;102863.34;5053075;28;20332;-79
2023/01/03 07:58:19;;;;;;;;;;;;;;;1.63;100.00;102872.88;5052532;28;19993;-81
2023/01/03 08:00:44;;;;;;;;;;;;;;;1.62;100.00;102879.84;5036597;28;20296;-82
2023/01/03 08:03:09;;;;;;;;;;;;;;;1.62;100.00;102884.19;5055036;28;19921;-79
2023/01/03 08:05:35;;;;;;;;;;;;;;;1.66;100.00;102879.78;5053985;28;19920;-81
2023/01/03 08:08:01;;;;;;;;;;;;;;;1.61;100.00;102879.88;5053867;28;19966;-80
2023/01/03 08:13:16;;;;;;;;;;;;;;;1.57;100.00;102873.06;5052421;28;20465;-79
2023/01/03 08:15:51;;;;;;;;;;;;;;;1.60;100.00;102868.63;5051242;28;20076;-80
2023/01/03 08:18:21;;;;;;;;;;;;;;;1.55;100.00;102877.47;5053621;28;20012;-80
2023/01/03 08:20:46;;;;;;;;;;;;;;;1.52;100.00;102867.13;5054941;28;19935;-82
2023/01/03 08:23:13;;;;;;;;;;;;;;;1.53;100.00;102867.09;5053462;28;19916;-81
2023/01/03 08:25:38;;;;;;;;;;;;;;;1.60;100.00;102872.97;5051894;28;19935;-79
2023/01/03 08:28:04;;;;;;;;;;;;;;;1.63;100.00;102871.16;5049730;28;19921;-82
2023/01/03 08:30:30;;;;;;;;;;;;;;;1.64;100.00;102872.84;5051177;28;20019;-78
2023/01/03 08:32:56;;;;;;;;;;;;;;;1.64;100.00;102872.84;5052208;28;20015;-83
2023/01/03 08:35:23;;;;;;;;;;;;;;;1.68;100.00;102870.13;5051176;28;20412;-81
2023/01/03 08:37:49;;;;;;;;;;;;;;;1.77;100.00;102872.50;5051862;28;19946;-82
2023/01/03 08:40:16;;;;;;;;;;;;;;;1.91;100.00;102874.72;5052642;28;20030;-80
2023/01/03 08:42:42;;;;;;;;;;;;;;;2.09;100.00;102862.91;5058978;28;19920;-82
2023/01/03 08:45:10;;;;;;;;;;;;;;;2.11;100.00;102861.09;5040457;28;20015;-81
2023/01/03 08:47:35;;;;;;;;;;;;;;;2.09;100.00;102861.16;5051399;28;19920;-82
2023/01/03 08:50:01;;;;;;;;;;;;;;;2.10;100.00;102852.44;5051575;28;20334;-82
2023/01/03 08:52:26;;;;;;;;;;;;;;;2.35;100.00;102846.47;5050351;28;19974;-82
2023/01/03 08:54:51;;;;;;;;;;;;;;;2.41;100.00;102838.47;5050476;28;20402;-82
2023/01/03 08:57:16;;;;;;;;;;;;;;;2.59;100.00;102837.03;5051233;28;19920;-82
2023/01/03 08:59:42;;;;;;;;;;;;;;;2.67;100.00;102824.59;5050437;28;19921;-82
2023/01/03 09:02:07;;;;;;;;;;;;;;;2.47;100.00;102813.06;5050707;28;19989;-82
2023/01/03 09:04:32;;;;;;;;;;;;;;;2.46;100.00;102808.78;5051715;28;19948;-83
2023/01/03 09:06:57;;;;;;;;;;;;;;;2.44;100.00;102797.53;5051832;28;19935;-82
2023/01/03 09:09:23;;;;;;;;;;;;;;;2.46;100.00;102784.44;5052347;28;19923;-81
2023/01/03 09:11:48;;;;;;;;;;;;;;;2.75;100.00;102780.03;5051039;28;19951;-80
2023/01/03 09:14:13;;;;;;;;;;;;;;;3.13;100.00;102775.25;5051136;28;19913;-80
2023/01/03 09:16:38;;;;;;;;;;;;;;;3.12;100.00;102761.34;5050323;28;20002;-82
2023/01/03 09:19:04;;;;;;;;;;;;;;;3.45;100.00;102756.66;5034350;28;19917;-82
2023/01/03 09:21:29;;;;;;;;;;;;;;;3.88;100.00;102743.75;5050666;28;19925;-81
2023/01/03 09:23:55;;;;;;;;;;;;;;;3.74;100.00;102728.59;5050400;28;19981;-81
2023/01/03 09:26:20;;;;;;;;;;;;;;;3.84;100.00;102706.44;5049531;28;19917;-81
2023/01/03 09:28:45;;;;;;;;;;;;;;;3.95;100.00;102707.78;5033565;28;19921;-80
2023/01/03 09:31:10;;;;;;;;;;;;;;;3.81;100.00;102692.63;5049482;28;19966;-81
2023/01/03 09:33:36;;;;;;;;;;;;;;;3.90;100.00;102695.75;5051642;28;19973;-82
2023/01/03 09:36:01;;;;;;;;;;;;;;;4.41;100.00;102691.03;5049204;28;19967;-82
2023/01/03 09:38:26;;;;;;;;;;;;;;;5.19;100.00;102688.56;5052477;28;20249;-82
2023/01/03 09:40:57;;;;;;;;;;;;;;;6.44;100.00;102681.66;5054413;28;20023;-79
2023/01/03 09:43:24;;;;;;;;;;;;;;;7.71;100.00;102671.38;5051740;28;20052;-83
2023/01/03 09:45:51;;;;;;;;;;;;;;;8.40;100.00;102656.88;5051488;28;19924;-84
2023/01/03 09:48:17;;;;;;;;;;;;;;;8.33;100.00;102654.69;5052363;28;19921;-81
2023/01/03 09:50:43;;;;;;;;;;;;;;;8.20;100.00;102651.91;5051229;28;19991;-84
2023/01/03 10:04:55;;;;;;;;;;;;;;;7.03;100.00;102652.38;5057322;28;20405;-82
2023/01/03 10:07:29;;;;;;;;;;;;;;;6.78;100.00;102643.19;5055593;28;20010;-80
2023/01/03 10:10:09;;;;;;;;;;;;;;;5.23;100.00;102649.06;5071780;28;20333;-83
2023/01/03 10:12:51;;;;;;;;;;;;;;;4.05;100.00;102649.00;5062387;28;19920;-83
2023/01/03 10:15:20;;;;;;;;;;;;;;;2.67;100.00;102657.75;5053559;28;20022;-83
2023/01/03 10:18:12;;;;;;;;;;;;;;;2.22;100.00;102666.22;5056666;28;20011;-82
2023/01/03 10:21:02;;;;;;;;;;;;;;;1.99;100.00;102673.06;5054493;28;19940;-84
2023/01/03 10:23:28;;;;;;;;;;;;;;;1.51;100.00;102689.31;5054943;28;19928;-81
2023/01/03 10:25:55;;;;;;;;;;;;;;;1.54;100.00;102693.56;5055865;28;19920;-81
2023/01/03 10:28:23;;;;;;;;;;;;;;;1.46;100.00;102701.63;5062117;28;20687;-83
2023/01/03 10:30:48;;;;;;;;;;;;;;;1.29;100.00;102709.91;5062092;28;19921;-82
2023/01/03 10:33:20;;;;;;;;;;;;;;;1.18;100.00;102712.81;5055690;28;20410;-84
2023/01/03 10:35:46;;;;;;;;;;;;;;;1.23;100.00;102730.88;5054277;28;20260;-85
2023/01/03 10:38:13;;;;;;;;;;;;;;;1.18;100.00;102733.63;5054615;28;19940;-81
2023/01/03 10:40:41;;;;;;;;;;;;;;;1.16;100.00;102740.63;5054832;28;19924;-83
2023/01/03 10:43:13;;;;;;;;;;;;;;;1.12;100.00;102749.41;5055763;28;20046;-81
2023/01/03 10:45:58;;;;;;;;;;;;;;;1.13;100.00;102752.84;5061979;28;19921;-78
2023/01/03 10:48:32;;;;;;;;;;;;;;;1.22;100.00;102763.00;5042458;28;20037;-81
2023/01/03 10:50:57;;;;;;;;;;;;;;;1.39;100.00;102770.31;5055112;28;19920;-80
2023/01/03 10:53:22;;;;;;;;;;;;;;;1.37;100.00;102790.31;5054486;28;19931;-83
2023/01/03 10:55:52;;;;;;;;;;;;;;;1.49;100.00;102789.16;5038417;28;19962;-82
2023/01/03 10:58:25;;;;;;;;;;;;;;;1.54;100.00;102790.69;5054957;28;20003;-81
2023/01/03 11:01:08;;;;;;;;;;;;;;;1.62;100.00;102804.34;5055296;28;19912;-79
2023/01/03 11:03:33;;;;;;;;;;;;;;;1.71;100.00;102823.22;5054808;28;19923;-82
2023/01/03 11:06:01;;;;;;;;;;;;;;;1.74;100.00;102825.72;5054945;28;20574;-80
2023/01/03 11:08:53;;;;;;;;;;;;;;;1.83;100.00;102836.75;5053772;28;19924;-82
2023/01/03 11:11:29;;;;;;;;;;;;;;;1.93;100.00;102842.50;5051255;28;19974;-80
2023/01/03 11:14:24;;;;;;;;;;;;;;;1.96;100.00;102852.88;5052568;28;19935;-83
2023/01/03 11:16:54;;;;;;;;;;;;;;;2.08;100.00;102861.19;5044271;28;19925;-80
2023/01/03 11:19:19;;;;;;;;;;;;;;;2.17;100.00;102866.13;5054150;28;19923;-79
2023/01/03 11:21:49;;;;;;;;;;;;;;;2.26;100.00;102874.53;5053981;28;19921;-81
2023/01/03 11:24:27;;;;;;;;;;;;;;;2.40;100.00;102878.47;5061982;28;19924;-79
2023/01/03 11:26:52;;;;;;;;;;;;;;;2.39;100.00;102889.78;5052645;28;20292;-81
2023/01/03 11:29:28;;;;;;;;;;;;;;;2.50;100.00;102897.28;5054423;28;19920;-79
2023/01/03 11:31:59;;;;;;;;;;;;;;;2.62;100.00;102910.78;5061594;28;19935;-82
2023/01/03 11:34:30;;;;;;;;;;;;;;;2.61;100.00;102909.09;5051364;28;19935;-82
2023/01/03 11:37:21;;;;;;;;;;;;;;;2.72;100.00;102916.56;5055425;28;19917;-80
2023/01/03 11:40:04;;;;;;;;;;;;;;;2.92;100.00;102917.66;5053565;28;20602;-81
2023/01/03 11:42:36;;;;;;;;;;;;;;;3.02;100.00;102924.31;5052918;28;20074;-81
2023/01/03 11:45:04;;;;;;;;;;;;;;;3.04;100.00;102930.34;5050861;28;19916;-81
2023/01/03 11:47:41;;;;;;;;;;;;;;;3.13;100.00;102931.78;5053420;28;20001;-79
2023/01/03 11:50:09;;;;;;;;;;;;;;;3.25;100.00;102937.47;5054911;28;20453;-80
2023/01/03 11:52:46;;;;;;;;;;;;;;;3.40;100.00;102943.91;5053075;28;20474;-80
2023/01/03 11:55:30;;;;;;;;;;;;;;;3.44;100.00;102957.72;5054468;28;19916;-80
2023/01/03 11:57:58;;;;;;;;;;;;;;;3.55;100.00;102953.00;5053162;28;19927;-81
2023/01/03 12:00:39;;;;;;;;;;;;;;;3.58;100.00;102954.66;5051996;28;20475;-79
2023/01/03 12:03:13;;;;;;;;;;;;;;;3.69;100.00;102952.50;5053193;28;20563;-82
2023/01/03 12:05:47;;;;;;;;;;;;;;;3.75;100.00;102961.91;5054563;28;19965;-82
2023/01/03 12:08:20;;;;;;;;;;;;;;;3.90;100.00;102971.81;5052334;28;19923;-81
2023/01/03 12:10:45;;;;;;;;;;;;;;;3.96;100.00;102963.72;5053236;28;20543;-79
2023/01/03 12:13:19;;;;;;;;;;;;;;;4.04;100.00;102972.16;5052824;28;19916;-80
2023/01/03 12:15:50;;;;;;;;;;;;;;;4.08;100.00;102958.06;5052272;28;19990;-81
2023/01/03 12:18:23;;;;;;;;;;;;;;;4.12;100.00;102957.03;5052544;28;19920;-81
2023/01/03 12:20:58;;;;;;;;;;;;;;;4.15;100.00;102948.22;5053050;28;20466;-82
2023/01/03 12:23:42;;;;;;;;;;;;;;;4.21;100.00;102953.25;5052423;28;19927;-83
2023/01/03 12:26:10;;;;;;;;;;;;;;;4.25;100.00;102940.91;5052352;28;20571;-81
2023/01/03 12:28:38;;;;;;;;;;;;;;;4.29;100.00;102934.63;5052172;28;20021;-82
2023/01/03 12:31:24;;;;;;;;;;;;;;;4.27;100.00;102928.66;5051130;28;19920;-81
2023/01/03 12:33:52;;;;;;;;;;;;;;;4.25;100.00;102923.47;5045054;28;20419;-82
2023/01/03 12:36:36;;;;;;;;;;;;;;;4.28;100.00;102912.03;5052454;28;19912;-82
2023/01/03 12:39:13;;;;;;;;;;;;;;;4.33;100.00;102917.94;5052376;28;19920;-83
2023/01/03 12:41:38;;;;;;;;;;;;;;;4.38;100.00;102908.19;5051767;28;19951;-81
2023/01/03 12:44:12;;;;;;;;;;;;;;;4.39;100.00;102909.88;5051172;28;19967;-80
2023/01/03 12:46:42;;;;;;;;;;;;;;;4.43;100.00;102908.00;5059102;28;19967;-81
2023/01/03 12:49:22;;;;;;;;;;;;;;;4.38;100.00;102900.31;5057772;28;19913;-83
2023/01/03 12:51:48;;;;;;;;;;;;;;;4.43;100.00;102905.38;5051539;28;19969;-82
2023/01/03 12:54:16;;;;;;;;;;;;;;;4.49;100.00;102908.59;5051115;28;20016;-80
2023/01/03 12:56:41;;;;;;;;;;;;;;;4.51;100.00;102909.41;5052219;28;19990;-82
2023/01/03 12:59:20;;;;;;;;;;;;;;;4.54;100.00;102911.03;5052047;28;19934;-82
2023/01/03 13:01:52;;;;;;;;;;;;;;;4.54;100.00;102906.66;5051332;28;20023;-83
2023/01/03 13:04:30;;;;;;;;;;;;;;;4.61;100.00;102903.78;5051950;28;19927;-82
2023/01/03 13:07:01;;;;;;;;;;;;;;;4.61;100.00;102906.41;5058515;28;20283;-83
2023/01/03 13:09:38;;;;;;;;;;;;;;;4.67;100.00;102914.88;5051866;28;19916;-82
2023/01/03 13:12:06;;;;;;;;;;;;;;;4.72;100.00;102919.91;5051379;28;20098;-83
2023/01/03 13:14:48;;;;;;;;;;;;;;;4.73;100.00;102932.09;5050948;28;20264;-82
2023/01/03 13:17:18;;;;;;;;;;;;;;;4.76;100.00;102931.97;5052157;28;20005;-82
2023/01/03 13:20:16;;;;;;;;;;;;;;;4.79;100.00;102937.09;5051410;28;19916;-81
2023/01/03 13:22:44;;;;;;;;;;;;;;;4.83;100.00;102940.41;5051797;28;19928;-82
2023/01/03 13:25:25;;;;;;;;;;;;;;;4.86;100.00;102942.94;5051811;28;19928;-81
2023/01/03 13:27:50;;;;;;;;;;;;;;;4.86;100.00;102954.25;5050985;28;20359;-81
2023/01/03 13:30:28;;;;;;;;;;;;;;;4.90;100.00;102950.59;5050999;28;19948;-80
2023/01/03 13:33:05;;;;;;;;;;;;;;;4.91;100.00;102962.75;5051956;28;19920;-82
2023/01/03 13:35:32;;;;;;;;;;;;;;;4.92;100.00;102951.38;5057556;28;20002;-82
2023/01/03 13:38:09;;;;;;;;;;;;;;;4.97;100.00;102955.59;5050800;28;19963;-81
2023/01/03 13:40:35;;;;;;;;;;;;;;;5.02;100.00;102969.31;5050667;28;19916;-82